Time;durP1;ratioP1;P1;durP2;ratioP2;P2;SDS_P1;SDS_P2;PMS_P1;PMS_P2;Temp;Humidity;BMP_temperature;BMP_pressure;BME280_temperature;BME280_humidity;BME280_pressure;Samples;Min_cycle;Max_cycle;Signal;HPM_P1;HPM_P2
2022/09/19 00:01:20;;;;;;;8.18;0.98;;;12.10;99.90;;;;;;5041410;28;20043;-71
2022/09/19 00:03:52;;;;;;;6.82;1.13;;;12.10;99.90;;;;;;5061331;28;20036;-70
2022/09/19 00:06:18;;;;;;;5.95;0.68;;;12.10;99.90;;;;;;5058504;28;20131;-70
2022/09/19 00:08:45;;;;;;;7.53;1.40;;;12.10;99.90;;;;;;5045957;28;20052;-70
2022/09/19 00:11:13;;;;;;;5.65;0.70;;;12.10;99.90;;;;;;5059408;28;20040;-70
2022/09/19 00:13:45;;;;;;;7.20;0.93;;;12.10;99.90;;;;;;5040779;28;20033;-70
2022/09/19 00:16:12;;;;;;;3.80;0.90;;;12.10;99.90;;;;;;5060816;28;20075;-70
2022/09/19 00:18:38;;;;;;;4.75;0.85;;;12.10;99.90;;;;;;5054595;28;20044;-70
2022/09/19 00:21:04;;;;;;;6.93;1.17;;;12.20;99.90;;;;;;5059903;28;20031;-70
2022/09/19 00:26:17;;;;;;;4.30;1.10;;;12.10;99.90;;;;;;5036738;28;20485;-70
2022/09/19 00:28:45;;;;;;;8.60;1.48;;;12.20;99.90;;;;;;5058235;28;20528;-70
2022/09/19 00:31:18;;;;;;;4.63;0.73;;;12.10;99.90;;;;;;5060398;28;20037;-70
2022/09/19 00:33:46;;;;;;;13.23;1.10;;;12.10;99.90;;;;;;5044437;28;20045;-70
2022/09/19 00:36:13;;;;;;;4.45;1.52;;;12.10;99.90;;;;;;5037138;28;20040;-70
2022/09/19 00:38:40;;;;;;;4.32;0.93;;;12.10;99.90;;;;;;5043307;28;20057;-70
2022/09/19 00:41:06;;;;;;;;;;;12.10;99.90;;;;;;5059130;28;20490;-70
2022/09/19 00:44:22;;;;;;;4.78;0.95;;;12.10;99.90;;;;;;5060743;28;19920;-70
2022/09/19 00:46:54;;;;;;;6.25;0.55;;;12.00;99.90;;;;;;5003852;28;21455;-70
2022/09/19 00:49:20;;;;;;;7.85;1.08;;;12.10;99.90;;;;;;5058007;28;20040;-70
2022/09/19 00:51:50;;;;;;;10.27;0.93;;;12.10;99.90;;;;;;5043129;28;20120;-70
2022/09/19 00:54:21;;;;;;;6.38;0.88;;;12.00;99.90;;;;;;5061765;28;20117;-70
2022/09/19 00:56:51;;;;;;;4.45;0.85;;;12.00;99.90;;;;;;5056725;28;20166;-70
2022/09/19 00:59:19;;;;;;;4.70;1.15;;;12.10;99.90;;;;;;5061187;28;20097;-70
2022/09/19 01:01:46;;;;;;;4.10;0.98;;;12.00;99.90;;;;;;5040664;28;20521;-70
2022/09/19 01:04:17;;;;;;;5.38;0.88;;;12.00;99.90;;;;;;5054208;28;20051;-70
2022/09/19 01:07:20;;;;;;;8.25;1.17;;;12.00;99.90;;;;;;5056487;28;20121;-70
2022/09/19 01:10:13;;;;;;;3.83;1.08;;;12.00;99.90;;;;;;5035428;28;20645;-70
2022/09/19 01:12:52;;;;;;;6.75;1.00;;;12.00;99.90;;;;;;5037966;28;20283;-70
2022/09/19 01:15:23;;;;;;;6.05;1.00;;;12.00;99.90;;;;;;5058637;28;20416;-70
2022/09/19 01:17:52;;;;;;;6.85;0.93;;;12.00;99.90;;;;;;5041231;28;20068;-70
2022/09/19 01:20:47;;;;;;;4.63;0.93;;;12.00;99.90;;;;;;5038511;28;20085;-70
2022/09/19 01:23:25;;;;;;;11.15;1.17;;;12.00;99.90;;;;;;5056672;28;20064;-71
2022/09/19 01:26:14;;;;;;;5.60;0.82;;;12.00;99.90;;;;;;5038478;28;20060;-70
2022/09/19 01:29:15;;;;;;;8.27;1.08;;;12.00;99.90;;;;;;5058743;28;20047;-70
2022/09/19 01:31:47;;;;;;;5.97;1.13;;;12.00;99.90;;;;;;5018687;28;20075;-70
2022/09/19 01:34:26;;;;;;;7.32;1.23;;;12.00;99.90;;;;;;5058528;28;20050;-70
2022/09/19 01:37:29;;;;;;;4.88;1.23;;;12.00;99.90;;;;;;5033048;28;20076;-70
2022/09/19 01:39:58;;;;;;;6.75;0.60;;;12.00;99.90;;;;;;5037755;28;20090;-70
2022/09/19 01:42:27;;;;;;;3.45;1.13;;;11.90;99.90;;;;;;5054819;28;20482;-71
2022/09/19 01:44:53;;;;;;;6.28;1.17;;;11.90;99.90;;;;;;5038626;28;20124;-70
2022/09/19 01:47:54;;;;;;;8.93;1.42;;;11.90;99.90;;;;;;5036016;28;20175;-70
2022/09/19 01:50:31;;;;;;;8.68;1.27;;;11.90;99.90;;;;;;5054138;28;20067;-70
2022/09/19 01:52:58;;;;;;;;;;;11.90;99.90;;;;;;5049748;28;20374;-70
2022/09/19 01:55:32;;;;;;;3.53;1.17;;;11.90;99.90;;;;;;5038991;28;19936;-70
2022/09/19 01:58:40;;;;;;;6.43;0.80;;;11.90;99.90;;;;;;5034366;28;20107;-71
2022/09/19 02:01:35;;;;;;;7.22;0.98;;;11.90;99.90;;;;;;5031090;28;20084;-70
2022/09/19 02:04:20;;;;;;;6.03;0.98;;;11.90;99.90;;;;;;5065901;28;20044;-70
2022/09/19 02:06:51;;;;;;;9.65;1.00;;;11.90;99.90;;;;;;5058172;28;20040;-70
2022/09/19 02:09:38;;;;;;;6.65;1.27;;;11.90;99.90;;;;;;5057972;28;20040;-70
2022/09/19 02:12:07;;;;;;;3.97;1.33;;;11.90;99.90;;;;;;5058533;28;20097;-70
2022/09/19 02:14:52;;;;;;;3.40;1.15;;;12.00;99.90;;;;;;5037560;28;20295;-70
2022/09/19 02:17:26;;;;;;;11.85;2.45;;;12.00;99.90;;;;;;5043455;28;20680;-70
2022/09/19 02:19:59;;;;;;;11.65;1.15;;;12.00;99.90;;;;;;5062186;28;20064;-70
2022/09/19 02:22:30;;;;;;;8.13;1.50;;;12.00;99.90;;;;;;5045516;28;20185;-70
2022/09/19 02:25:00;;;;;;;11.00;1.67;;;12.10;99.90;;;;;;5051274;28;20044;-70
2022/09/19 02:27:35;;;;;;;5.90;0.68;;;12.10;99.90;;;;;;5060879;28;20141;-70
2022/09/19 02:30:08;;;;;;;9.00;1.52;;;12.20;99.90;;;;;;5043965;28;20056;-70
2022/09/19 02:32:45;;;;;;;10.65;1.17;;;12.20;99.90;;;;;;5061890;28;20047;-71
2022/09/19 02:35:13;;;;;;;5.00;1.00;;;12.20;99.90;;;;;;5043290;28;20036;-70
2022/09/19 02:37:46;;;;;;;4.95;0.90;;;12.20;99.90;;;;;;5051858;28;20040;-70
2022/09/19 02:40:50;;;;;;;4.90;0.90;;;12.20;99.90;;;;;;5046203;28;20416;-71
2022/09/19 02:43:46;;;;;;;4.88;0.93;;;12.30;99.90;;;;;;4994247;28;20052;-71
2022/09/19 02:46:54;;;;;;;4.50;1.00;;;12.30;99.90;;;;;;5058497;28;20078;-71
2022/09/19 02:49:30;;;;;;;7.15;1.10;;;12.30;99.90;;;;;;5021773;28;20102;-71
2022/09/19 02:52:00;;;;;;;9.82;1.40;;;12.30;99.90;;;;;;5061313;28;20044;-70
2022/09/19 02:54:31;;;;;;;3.42;0.60;;;12.30;99.90;;;;;;5058694;28;20121;-71
2022/09/19 02:57:01;;;;;;;3.42;1.15;;;12.30;99.90;;;;;;5059750;28;20104;-70
2022/09/19 02:59:33;;;;;;;8.93;1.48;;;12.30;99.90;;;;;;5070031;28;20067;-71
2022/09/19 03:02:03;;;;;;;8.52;0.95;;;12.30;99.90;;;;;;5046232;28;20041;-71
2022/09/19 03:04:33;;;;;;;8.30;1.58;;;12.30;99.90;;;;;;5062558;28;20043;-71
2022/09/19 03:07:32;;;;;;;6.97;0.80;;;12.30;99.90;;;;;;5064090;28;20394;-71
2022/09/19 03:10:08;;;;;;;6.57;1.90;;;12.30;99.90;;;;;;5056922;28;20052;-71
2022/09/19 03:12:59;;;;;;;6.93;1.35;;;12.40;99.90;;;;;;5041476;28;20048;-71
2022/09/19 03:15:33;;;;;;;9.07;0.90;;;12.30;99.90;;;;;;5036847;28;20072;-70
2022/09/19 03:18:01;;;;;;;6.47;1.00;;;12.40;99.90;;;;;;5062698;28;20072;-70
2022/09/19 03:20:27;;;;;;;8.48;0.80;;;12.30;99.90;;;;;;5060523;28;20347;-70
2022/09/19 03:22:53;;;;;;;11.52;0.98;;;12.40;99.90;;;;;;5062485;28;20093;-70
2022/09/19 03:25:19;;;;;;;5.15;0.90;;;12.40;99.90;;;;;;5063313;28;20095;-71
2022/09/19 03:27:45;;;;;;;5.32;0.60;;;12.30;99.90;;;;;;5038019;28;20217;-71
2022/09/19 03:30:13;;;;;;;4.90;0.85;;;12.40;99.90;;;;;;5054482;28;20056;-71
2022/09/19 03:32:39;;;;;;;6.65;1.55;;;12.30;99.90;;;;;;5045057;28;20116;-71
2022/09/19 03:35:05;;;;;;;;;;;12.30;99.90;;;;;;5060655;28;20355;-70
2022/09/19 03:37:32;;;;;;;5.97;0.90;;;12.30;99.90;;;;;;5044402;28;19924;-70
2022/09/19 03:39:58;;;;;;;4.65;1.05;;;12.30;99.90;;;;;;5038253;28;20067;-72
2022/09/19 03:42:25;;;;;;;;;;;12.30;99.90;;;;;;5046700;28;20219;-71
2022/09/19 03:44:54;;;;;;;5.57;0.67;;;12.20;99.90;;;;;;5060017;28;20007;-71
2022/09/19 03:47:21;;;;;;;8.45;1.13;;;12.20;99.90;;;;;;5051514;28;20354;-70
2022/09/19 03:49:49;;;;;;;;;;;12.20;99.90;;;;;;5062098;28;20142;-70
2022/09/19 03:52:16;;;;;;;7.32;1.40;;;12.10;99.90;;;;;;5061512;28;20342;-71
2022/09/19 03:54:41;;;;;;;3.38;0.65;;;12.10;99.90;;;;;;5061054;28;20048;-70
2022/09/19 03:57:07;;;;;;;5.90;1.17;;;12.10;99.90;;;;;;5041502;28;20095;-71
2022/09/19 03:59:33;;;;;;;6.43;1.00;;;12.10;99.90;;;;;;5045751;28;20094;-71
2022/09/19 04:01:59;;;;;;;4.63;1.52;;;12.00;99.90;;;;;;5043556;28;20617;-71
2022/09/19 04:04:25;;;;;;;7.27;1.20;;;12.00;99.90;;;;;;5063019;28;20136;-71
2022/09/19 04:06:51;;;;;;;5.32;0.80;;;12.00;99.90;;;;;;5033835;28;20552;-71
2022/09/19 04:09:17;;;;;;;6.53;0.68;;;12.00;99.90;;;;;;5058839;28;20212;-71
2022/09/19 04:11:42;;;;;;;7.63;0.80;;;12.00;99.90;;;;;;5060727;28;20496;-70
2022/09/19 04:14:09;;;;;;;6.43;0.60;;;11.90;99.90;;;;;;5063357;28;20045;-71
2022/09/19 04:16:34;;;;;;;3.80;1.00;;;12.00;99.90;;;;;;5056243;28;20037;-70
2022/09/19 04:19:00;;;;;;;6.25;1.13;;;11.90;99.90;;;;;;5066718;28;20135;-70
2022/09/19 04:21:27;;;;;;;9.73;1.30;;;11.90;99.90;;;;;;5049350;28;20109;-71
2022/09/19 04:23:54;;;;;;;;;;;11.90;99.90;;;;;;5058663;28;20044;-70
2022/09/19 04:26:24;;;;;;;4.95;0.60;;;11.80;99.90;;;;;;5061592;28;19951;-70
2022/09/19 04:28:50;;;;;;;8.50;1.25;;;11.80;99.90;;;;;;5059328;28;20360;-71
2022/09/19 04:31:16;;;;;;;7.67;0.90;;;11.80;99.90;;;;;;5045092;28;20047;-70
2022/09/19 04:33:41;;;;;;;6.53;0.93;;;11.80;99.90;;;;;;5041623;28;20165;-70
2022/09/19 04:36:08;;;;;;;8.73;1.20;;;11.80;99.90;;;;;;5041851;28;20623;-70
2022/09/19 04:38:34;;;;;;;6.22;0.95;;;11.80;99.90;;;;;;5041034;28;20441;-70
2022/09/19 04:41:01;;;;;;;7.57;0.98;;;11.80;99.90;;;;;;5061594;28;20071;-70
2022/09/19 04:43:27;;;;;;;;;;;11.80;99.90;;;;;;5058622;28;20045;-71
2022/09/19 04:45:56;;;;;;;9.27;1.17;;;11.80;99.90;;;;;;5059919;28;20649;-70
2022/09/19 04:48:23;;;;;;;8.75;0.90;;;11.80;99.90;;;;;;5051358;28;20044;-70
2022/09/19 04:50:50;;;;;;;7.28;0.90;;;11.80;99.90;;;;;;5043771;28;20318;-71
2022/09/19 04:53:23;;;;;;;2.40;0.77;;;11.80;99.90;;;;;;5060341;28;21187;-70
2022/09/19 04:55:53;;;;;;;7.95;0.90;;;11.80;99.90;;;;;;5029365;28;20583;-71
2022/09/19 04:58:20;;;;;;;4.82;0.88;;;11.80;99.90;;;;;;5056203;28;20459;-71
2022/09/19 05:00:55;;;;;;;5.47;0.80;;;11.80;99.90;;;;;;5061720;28;20063;-71
2022/09/19 05:03:25;;;;;;;5.00;0.82;;;11.90;99.90;;;;;;5042680;28;20062;-71
2022/09/19 05:05:51;;;;;;;5.10;0.68;;;11.80;99.90;;;;;;5062304;28;20240;-70
2022/09/19 05:08:25;;;;;;;;;;;11.90;99.90;;;;;;5040757;28;20044;-70
2022/09/19 05:10:54;;;;;;;7.35;1.10;;;11.90;99.90;;;;;;5061288;28;19964;-71
2022/09/19 05:13:23;;;;;;;7.05;0.90;;;11.90;99.90;;;;;;5054004;28;20075;-70
2022/09/19 05:15:51;;;;;;;5.88;0.95;;;11.80;99.90;;;;;;5056683;28;20360;-72
2022/09/19 05:18:19;;;;;;;4.68;0.85;;;11.80;99.90;;;;;;5039055;28;20045;-70
2022/09/19 05:20:44;;;;;;;5.45;1.40;;;11.90;99.90;;;;;;5059121;28;20170;-71
2022/09/19 05:23:10;;;;;;;4.17;1.10;;;11.90;99.90;;;;;;5043710;28;20048;-71
2022/09/19 05:25:40;;;;;;;4.60;0.63;;;11.90;99.90;;;;;;5054181;28;20354;-70
2022/09/19 05:28:07;;;;;;;7.07;0.90;;;11.90;99.90;;;;;;5044186;28;20118;-71
2022/09/19 05:30:38;;;;;;;7.03;0.90;;;11.90;99.90;;;;;;5061447;28;20247;-72
2022/09/19 05:33:06;;;;;;;5.97;0.68;;;11.80;99.90;;;;;;5036367;28;20470;-72
2022/09/19 05:35:32;;;;;;;4.80;1.17;;;11.80;99.90;;;;;;5062302;28;20106;-72
2022/09/19 05:37:58;;;;;;;4.00;0.88;;;11.80;99.90;;;;;;5047554;28;20109;-73
2022/09/19 05:40:25;;;;;;;5.05;0.60;;;11.80;99.90;;;;;;5050006;28;20322;-71
2022/09/19 05:42:53;;;;;;;5.68;1.10;;;11.80;99.90;;;;;;5059646;28;20040;-72
2022/09/19 05:45:20;;;;;;;6.97;1.00;;;11.80;99.90;;;;;;5063162;28;20047;-70
2022/09/19 05:47:46;;;;;;;6.55;1.08;;;11.70;99.90;;;;;;5044819;28;20445;-71
2022/09/19 05:50:14;;;;;;;4.25;1.33;;;11.80;99.90;;;;;;5064713;28;20393;-70
2022/09/19 05:55:27;;;;;;;5.47;1.65;;;11.80;99.90;;;;;;5058912;28;20045;-71
2022/09/19 05:57:56;;;;;;;5.15;0.77;;;11.90;99.90;;;;;;5060550;28;20390;-70
2022/09/19 06:00:24;;;;;;;4.63;0.68;;;12.00;99.90;;;;;;5051330;28;20054;-70
2022/09/19 06:03:00;;;;;;;8.25;1.08;;;11.90;99.90;;;;;;5062463;28;20136;-71
2022/09/19 06:05:26;;;;;;;7.88;1.08;;;12.00;99.90;;;;;;5061960;28;20238;-70
2022/09/19 06:07:55;;;;;;;;;;;12.00;99.90;;;;;;5062273;28;20054;-70
2022/09/19 06:10:23;;;;;;;5.22;0.77;;;12.00;99.90;;;;;;5064409;28;19916;-70
2022/09/19 06:12:49;;;;;;;5.80;1.02;;;12.00;99.90;;;;;;5061970;28;20058;-71
2022/09/19 06:15:15;;;;;;;;;;;12.00;99.90;;;;;;5049909;28;20406;-70
2022/09/19 06:17:41;;;;;;;4.78;0.95;;;11.90;99.90;;;;;;5035925;28;20065;-71
2022/09/19 06:20:08;;;;;;;5.72;0.77;;;12.00;99.90;;;;;;5057127;28;20045;-72
2022/09/19 06:22:34;;;;;;;3.65;1.27;;;12.00;99.90;;;;;;5065326;28;20063;-71
2022/09/19 06:25:00;;;;;;;5.28;1.02;;;12.00;99.90;;;;;;5032951;28;20060;-70
2022/09/19 06:27:27;;;;;;;5.90;0.75;;;12.00;99.90;;;;;;5052829;28;20499;-70
2022/09/19 06:29:53;;;;;;;2.10;0.60;;;12.10;99.90;;;;;;5042471;28;20083;-70
2022/09/19 06:32:20;;;;;;;5.60;0.80;;;12.10;99.90;;;;;;5061433;28;20101;-71
2022/09/19 06:34:46;;;;;;;4.95;0.90;;;12.10;99.90;;;;;;5061090;28;20102;-70
2022/09/19 06:37:12;;;;;;;3.22;0.52;;;12.20;99.90;;;;;;5045042;28;20071;-70
2022/09/19 06:39:38;;;;;;;5.18;0.80;;;12.20;99.90;;;;;;5047529;28;20032;-70
2022/09/19 06:42:07;;;;;;;4.90;1.83;;;12.20;99.90;;;;;;5063234;28;20368;-70
2022/09/19 06:44:33;;;;;;;2.38;0.70;;;12.30;99.90;;;;;;5062331;28;20048;-70
2022/09/19 06:46:59;;;;;;;6.38;0.93;;;12.30;99.90;;;;;;5038870;28;20564;-70
2022/09/19 06:49:25;;;;;;;7.65;1.23;;;12.30;99.90;;;;;;5049074;28;20123;-70
2022/09/19 06:51:51;;;;;;;;;;;12.30;99.90;;;;;;5065700;28;20051;-70
2022/09/19 06:54:17;;;;;;;8.35;1.30;;;12.30;99.90;;;;;;5051404;28;20166;-70
2022/09/19 06:56:42;;;;;;;7.03;1.23;;;12.30;99.90;;;;;;5031887;28;20123;-70
2022/09/19 06:59:08;;;;;;;3.10;0.80;;;12.30;99.90;;;;;;5071879;28;20582;-70
2022/09/19 07:01:34;;;;;;;7.63;1.27;;;12.40;99.90;;;;;;5044013;28;20052;-70
2022/09/19 07:03:59;;;;;;;4.47;1.05;;;12.40;99.90;;;;;;5044600;28;20124;-70
2022/09/19 07:06:25;;;;;;;4.97;0.80;;;12.50;99.90;;;;;;5044431;28;20083;-70
2022/09/19 07:08:51;;;;;;;5.32;1.30;;;12.50;99.90;;;;;;5059470;28;20044;-70
2022/09/19 07:11:17;;;;;;;6.30;1.37;;;12.50;99.90;;;;;;5063682;28;20044;-70
2022/09/19 07:13:43;;;;;;;7.60;0.93;;;12.60;99.90;;;;;;5063912;28;22114;-70
2022/09/19 07:16:09;;;;;;;5.95;0.90;;;12.60;99.90;;;;;;5039391;28;20086;-70
2022/09/19 07:18:36;;;;;;;4.45;0.77;;;12.60;99.90;;;;;;5061700;28;20589;-71
2022/09/19 07:21:02;;;;;;;5.70;0.88;;;12.60;99.90;;;;;;5032936;28;20120;-70
2022/09/19 07:23:28;;;;;;;4.93;1.10;;;12.70;99.90;;;;;;5066926;28;20253;-70
2022/09/19 07:25:55;;;;;;;13.68;2.03;;;12.70;99.90;;;;;;5057457;28;20066;-71
2022/09/19 07:28:21;;;;;;;6.07;1.15;;;12.70;99.90;;;;;;5060041;28;20058;-70
2022/09/19 07:30:48;;;;;;;;;;;12.70;99.90;;;;;;5050774;28;20053;-71
2022/09/19 07:33:16;;;;;;;8.27;1.50;;;12.70;99.90;;;;;;5061670;28;19981;-70
2022/09/19 07:35:42;;;;;;;6.65;0.85;;;12.80;99.90;;;;;;5044859;28;20055;-70
2022/09/19 07:38:16;;;;;;;5.03;0.77;;;12.80;99.90;;;;;;5047525;28;20045;-70
2022/09/19 07:40:42;;;;;;;5.57;1.45;;;12.90;99.90;;;;;;5058021;28;20048;-71
2022/09/19 07:43:16;;;;;;;5.70;1.27;;;13.00;99.90;;;;;;5061646;28;20139;-70
2022/09/19 07:45:44;;;;;;;5.82;0.93;;;13.00;99.90;;;;;;5066711;28;20276;-70
2022/09/19 07:48:10;;;;;;;6.50;1.15;;;13.10;99.90;;;;;;5039061;28;20056;-71
2022/09/19 07:50:37;;;;;;;4.55;0.90;;;13.20;99.90;;;;;;5045065;28;20113;-70
2022/09/19 07:53:08;;;;;;;4.93;1.40;;;13.30;99.90;;;;;;5046805;28;20169;-70
2022/09/19 07:55:36;;;;;;;7.78;1.42;;;13.40;99.90;;;;;;5079148;22;20061;-85
2022/09/19 07:58:03;;;;;;;7.28;1.38;;;13.50;99.90;;;;;;5033251;28;20044;-82
2022/09/19 08:00:30;;;;;;;6.85;0.95;;;13.70;99.90;;;;;;5038213;28;20045;-83
2022/09/19 08:03:06;;;;;;;11.13;1.70;;;13.70;99.90;;;;;;5057101;28;20062;-84
2022/09/19 08:05:34;;;;;;;7.45;1.23;;;13.70;99.90;;;;;;5038630;28;20055;-83
2022/09/19 08:08:00;;;;;;;5.75;1.38;;;13.70;99.90;;;;;;5038445;28;20060;-83
2022/09/19 08:10:26;;;;;;;7.28;1.40;;;13.80;99.90;;;;;;5056439;28;20041;-84
2022/09/19 08:12:52;;;;;;;8.85;1.17;;;13.80;99.90;;;;;;5043310;28;20049;-82
2022/09/19 08:15:19;;;;;;;7.55;1.20;;;13.90;99.90;;;;;;5056754;28;20039;-85
2022/09/19 08:18:00;;;;;;;10.13;1.10;;;13.90;99.90;;;;;;5065823;28;20035;-83
2022/09/19 08:20:31;;;;;;;6.65;1.23;;;14.00;99.90;;;;;;5055445;28;20036;-85
2022/09/19 08:23:04;;;;;;;6.40;1.25;;;13.90;99.90;;;;;;5037732;28;20032;-83
2022/09/19 08:25:32;;;;;;;7.68;0.90;;;14.10;99.90;;;;;;5059191;28;20041;-85
2022/09/19 08:27:58;;;;;;;7.32;1.02;;;14.10;99.90;;;;;;5053143;28;20040;-84
2022/09/19 08:30:27;;;;;;;3.92;1.00;;;14.30;99.90;;;;;;5056369;28;20048;-86
2022/09/19 08:32:56;;;;;;;4.88;0.73;;;14.20;99.90;;;;;;5052045;28;20077;-84
2022/09/19 08:35:22;;;;;;;6.70;1.10;;;14.30;99.90;;;;;;5038850;28;20041;-85
2022/09/19 08:37:57;;;;;;;3.85;1.33;;;14.30;99.90;;;;;;5046144;28;20072;-85
2022/09/19 08:40:45;;;;;;;13.13;1.48;;;14.40;99.90;;;;;;5047686;28;20044;-85
2022/09/19 08:43:26;;;;;;;5.38;0.90;;;14.50;99.90;;;;;;5035560;28;20061;-85
2022/09/19 08:46:01;;;;;;;5.10;1.00;;;14.60;99.90;;;;;;5055597;28;20499;-85
2022/09/19 08:48:36;;;;;;;7.82;0.93;;;14.70;99.90;;;;;;5043258;28;20135;-85
2022/09/19 08:51:16;;;;;;;7.05;0.90;;;14.80;99.90;;;;;;5045848;28;20040;-83
2022/09/19 08:53:48;;;;;;;9.15;1.35;;;14.80;99.90;;;;;;5052278;28;20041;-84
2022/09/19 08:56:16;;;;;;;5.13;1.15;;;14.90;99.90;;;;;;5046098;28;20550;-83
2022/09/19 08:58:50;;;;;;;6.35;0.82;;;15.00;99.90;;;;;;5052061;28;20072;-84
2022/09/19 09:13:30;;;;;;;6.88;1.05;;;15.20;99.90;;;;;;4870157;28;20372;-82
2022/09/19 09:15:59;;;;;;;3.22;0.90;;;15.20;99.90;;;;;;4843971;28;20513;-84
2022/09/19 09:19:17;;;;;;;6.32;1.00;;;15.30;99.90;;;;;;4848712;28;21067;-85
2022/09/19 09:22:15;;;;;;;;;;;;;;;;;;;;;
2022/09/19 09:24:54;;;;;;;5.88;1.17;;;15.40;99.90;;;;;;5004567;22;20056;-72
2022/09/19 09:27:27;;;;;;;5.88;1.00;;;15.40;99.90;;;;;;4929503;28;20079;-73
2022/09/19 09:30:04;;;;;;;5.80;1.10;;;15.60;99.90;;;;;;5048897;28;20115;-74
2022/09/19 09:32:34;;;;;;;4.32;0.57;;;15.60;99.90;;;;;;5079059;28;20040;-74
2022/09/19 09:35:06;;;;;;;5.40;0.82;;;15.60;99.90;;;;;;5066209;28;20064;-74
2022/09/19 09:37:44;;;;;;;1.85;0.40;;;15.50;99.90;;;;;;5067609;28;20085;-74
2022/09/19 09:43:23;;;;;;;7.63;0.98;;;15.40;99.90;;;;;;5062753;28;20133;-73
2022/09/19 09:45:51;;;;;;;3.45;0.63;;;15.50;99.90;;;;;;5069161;28;20043;-74
2022/09/19 09:48:38;;;;;;;6.97;1.15;;;15.50;99.90;;;;;;5083427;28;20053;-74
2022/09/19 09:51:10;;;;;;;5.63;1.10;;;15.70;99.90;;;;;;5084592;28;20047;-74
2022/09/19 09:53:49;;;;;;;3.42;0.65;;;15.80;99.90;;;;;;5060295;28;20098;-74
2022/09/19 09:56:47;;;;;;;3.58;0.90;;;15.80;99.90;;;;;;5081371;28;20044;-73
2022/09/19 10:03:42;;;;;;;2.35;0.60;;;15.90;99.90;;;;;;5067802;28;20040;-74
2022/09/19 10:05:48;;;;;;;4.53;1.00;;;15.90;99.90;;;;;;5064924;28;20072;-74
2022/09/19 10:08:40;;;;;;;4.75;0.60;;;15.80;99.90;;;;;;5073601;28;20106;-73
2022/09/19 10:11:42;;;;;;;6.85;1.10;;;15.70;99.90;;;;;;5063012;28;20052;-74
2022/09/19 10:14:23;;;;;;;4.05;0.50;;;15.60;99.90;;;;;;5078155;28;20044;-73
2022/09/19 10:16:52;;;;;;;3.58;0.55;;;15.40;99.90;;;;;;5080672;28;20481;-74
2022/09/19 10:19:39;;;;;;;5.95;1.10;;;15.40;99.90;;;;;;5081982;28;20036;-74
2022/09/19 10:22:15;;;;;;;4.75;0.63;;;15.50;99.90;;;;;;5071136;28;20075;-74
2022/09/19 10:24:56;;;;;;;6.18;0.93;;;15.50;99.90;;;;;;5073014;28;20062;-75
2022/09/19 10:27:33;;;;;;;6.75;1.20;;;15.60;99.90;;;;;;5080344;28;20035;-74
2022/09/19 10:30:06;;;;;;;3.10;1.10;;;15.70;99.90;;;;;;5041805;28;20840;-75
2022/09/19 10:32:40;;;;;;;8.25;1.25;;;15.90;99.90;;;;;;4970684;28;20343;-75
2022/09/19 10:35:35;;;;;;;9.20;1.73;;;16.00;99.90;;;;;;4959211;28;20266;-74
2022/09/19 10:38:02;;;;;;;6.68;1.10;;;16.10;99.90;;;;;;5083825;28;20124;-74
2022/09/19 10:40:30;;;;;;;3.45;0.70;;;16.30;99.90;;;;;;5073015;28;20044;-74
2022/09/19 10:43:30;;;;;;;11.18;1.40;;;16.50;99.90;;;;;;4949958;28;20040;-76
2022/09/19 10:46:05;;;;;;;8.98;1.02;;;16.60;99.90;;;;;;4925507;28;20399;-74
2022/09/19 10:48:39;;;;;;;8.00;1.30;;;16.70;99.90;;;;;;4940186;28;20404;-75
2022/09/19 10:51:20;;;;;;;7.05;1.17;;;16.70;99.90;;;;;;4955436;28;20323;-75
2022/09/19 10:53:55;;;;;;;8.18;1.27;;;16.70;99.90;;;;;;4934741;28;20040;-75
2022/09/19 10:56:24;;;;;;;5.03;1.00;;;16.50;99.90;;;;;;5091139;28;20066;-74
2022/09/19 10:58:59;;;;;;;6.38;1.23;;;16.40;99.90;;;;;;5073350;28;20040;-75
2022/09/19 11:01:26;;;;;;;9.98;1.23;;;16.30;99.90;;;;;;5069900;28;20045;-74
2022/09/19 11:04:20;;;;;;;5.18;0.95;;;16.30;99.90;;;;;;4966175;28;20474;-75
2022/09/19 11:06:57;;;;;;;3.20;0.55;;;16.20;99.90;;;;;;5083859;28;20039;-74
2022/09/19 11:09:27;;;;;;;;;;;16.20;99.90;;;;;;5003658;28;20455;-74
2022/09/19 11:12:09;;;;;;;8.88;1.17;;;16.10;99.90;;;;;;4912258;28;19994;-75
2022/09/19 11:14:56;;;;;;;7.97;1.48;;;15.90;99.90;;;;;;4914835;28;20345;-72
2022/09/19 11:17:32;;;;;;;7.82;1.02;;;15.70;99.90;;;;;;5080280;28;20500;-72
2022/09/19 11:20:23;;;;;;;6.75;1.48;;;15.50;99.90;;;;;;5075962;28;20051;-73
2022/09/19 11:23:20;;;;;;;3.85;0.75;;;15.30;99.90;;;;;;5057412;28;20375;-73
2022/09/19 11:25:58;;;;;;;8.25;1.20;;;15.00;99.90;;;;;;5051350;28;20040;-73
2022/09/19 11:29:02;;;;;;;10.77;1.48;;;14.70;99.90;;;;;;5055831;28;20033;-73
2022/09/19 11:32:03;;;;;;;5.65;0.90;;;14.60;99.90;;;;;;5076183;28;20043;-78
2022/09/19 11:35:25;;;;;;;7.07;1.10;;;14.50;99.90;;;;;;4889544;28;20492;-73
2022/09/19 11:38:09;;;;;;;7.53;1.00;;;14.50;99.90;;;;;;4863198;28;20485;-73
2022/09/19 11:40:58;;;;;;;4.97;1.00;;;14.50;99.90;;;;;;5082867;28;20402;-73
2022/09/19 11:44:01;;;;;;;5.95;1.25;;;14.60;99.90;;;;;;5046349;28;20413;-73
2022/09/19 11:47:25;;;;;;;7.03;1.30;;;14.70;99.90;;;;;;5052620;28;20048;-74
2022/09/19 11:50:08;;;;;;;7.82;1.33;;;15.00;99.90;;;;;;4949689;28;20049;-74
2022/09/19 11:52:58;;;;;;;10.02;1.42;;;15.10;99.90;;;;;;4926368;28;20081;-74
2022/09/19 11:55:46;;;;;;;4.82;1.35;;;15.20;99.90;;;;;;5041375;28;20044;-75
2022/09/19 11:58:15;;;;;;;;;;;15.20;99.90;;;;;;5058932;28;20043;-74
2022/09/19 12:01:09;;;;;;;5.68;1.00;;;15.40;99.90;;;;;;5066222;28;19923;-74
2022/09/19 12:03:44;;;;;;;5.15;0.88;;;15.50;99.90;;;;;;5032902;28;20063;-73
2022/09/19 12:06:09;;;;;;;10.27;0.90;;;15.70;99.90;;;;;;5065110;28;20489;-72
2022/09/19 12:09:07;;;;;;;9.20;0.97;;;15.80;99.90;;;;;;5060740;28;20096;-73
2022/09/19 12:12:10;;;;;;;8.68;0.90;;;15.90;99.90;;;;;;5071191;28;20467;-72
2022/09/19 12:14:46;;;;;;;7.40;1.33;;;16.00;99.90;;;;;;5072289;28;20490;-72
2022/09/19 12:17:15;;;;;;;6.30;0.80;;;15.90;99.90;;;;;;5079112;28;20047;-73
2022/09/19 12:19:46;;;;;;;6.32;1.20;;;15.80;99.90;;;;;;5083122;28;20506;-73
2022/09/19 12:22:18;;;;;;;2.75;0.70;;;15.50;99.90;;;;;;5071025;28;20097;-72
2022/09/19 12:25:10;;;;;;;4.60;0.93;;;15.40;99.90;;;;;;5058057;28;20547;-73
2022/09/19 12:28:10;;;;;;;2.60;0.57;;;15.20;99.90;;;;;;5080620;28;20102;-72
2022/09/19 12:30:40;;;;;;;7.78;0.98;;;14.90;99.90;;;;;;5027786;28;20048;-72
2022/09/19 12:33:37;;;;;;;5.93;0.90;;;14.70;99.90;;;;;;5082017;28;20413;-73
2022/09/19 12:36:15;;;;;;;4.90;0.73;;;14.50;99.90;;;;;;5064018;28;20044;-73
2022/09/19 12:38:53;;;;;;;6.40;1.30;;;14.40;99.90;;;;;;5079207;28;20543;-73
2022/09/19 12:41:40;;;;;;;5.13;0.75;;;14.30;99.90;;;;;;5062923;28;20123;-73
2022/09/19 12:44:25;;;;;;;6.68;1.10;;;14.20;99.90;;;;;;5078807;28;20043;-73
2022/09/19 12:46:58;;;;;;;5.10;1.35;;;14.00;99.90;;;;;;5066633;28;20046;-73
2022/09/19 12:49:50;;;;;;;5.50;0.98;;;14.00;99.90;;;;;;5083474;28;20114;-72
2022/09/19 12:52:28;;;;;;;6.03;0.88;;;14.00;99.90;;;;;;5049802;28;20037;-73
2022/09/19 12:55:16;;;;;;;4.60;1.10;;;14.00;99.90;;;;;;5058945;28;20136;-72
2022/09/19 12:57:56;;;;;;;7.85;1.10;;;14.00;99.90;;;;;;5080070;28;20332;-73
2022/09/19 13:00:22;;;;;;;5.28;0.68;;;14.00;99.90;;;;;;5076891;28;20096;-73
2022/09/19 13:02:48;;;;;;;1.38;0.50;;;14.00;99.90;;;;;;5058201;28;20048;-72
2022/09/19 13:05:34;;;;;;;5.63;1.08;;;14.10;99.90;;;;;;5064875;28;20046;-73
2022/09/19 13:08:04;;;;;;;5.13;0.73;;;14.10;99.90;;;;;;5078439;28;20105;-73
2022/09/19 13:10:41;;;;;;;9.60;0.98;;;14.10;99.90;;;;;;5078788;28;20058;-73
2022/09/19 13:13:32;;;;;;;5.50;0.75;;;14.10;99.90;;;;;;5082421;28;20055;-73
2022/09/19 13:16:07;;;;;;;2.95;0.60;;;14.20;99.90;;;;;;5074569;28;20083;-73
2022/09/19 13:24:06;;;;;;;5.30;0.80;;;14.60;99.90;;;;;;5085029;28;20371;-73
2022/09/19 13:26:36;;;;;;;6.00;1.13;;;14.70;99.90;;;;;;5062593;28;20045;-73
2022/09/19 13:29:26;;;;;;;8.70;1.30;;;14.90;99.90;;;;;;5079379;28;20039;-73
2022/09/19 13:31:55;;;;;;;7.38;1.35;;;15.10;99.90;;;;;;5086235;28;20500;-73
2022/09/19 13:34:33;;;;;;;5.10;1.05;;;15.40;99.90;;;;;;5067237;28;20102;-73
2022/09/19 13:37:22;;;;;;;6.68;1.00;;;15.60;99.90;;;;;;5057204;28;20198;-73
2022/09/19 13:40:16;;;;;;;7.35;1.25;;;15.80;99.90;;;;;;5070737;28;20052;-73
2022/09/19 13:43:09;;;;;;;8.90;0.82;;;16.00;99.90;;;;;;5082772;28;20046;-74
2022/09/19 13:45:45;;;;;;;4.82;0.85;;;16.10;99.90;;;;;;5078312;28;20082;-74
2022/09/19 13:48:25;;;;;;;5.65;0.95;;;16.00;99.90;;;;;;5064248;28;20040;-73
2022/09/19 13:51:10;;;;;;;6.18;0.73;;;16.00;99.90;;;;;;5060332;28;20082;-73
2022/09/19 13:53:44;;;;;;;8.13;1.00;;;16.00;99.90;;;;;;5058767;28;20526;-74
2022/09/19 13:56:35;;;;;;;5.03;1.35;;;16.10;99.90;;;;;;5137796;22;20072;-72
2022/09/19 13:59:25;;;;;;;4.50;0.93;;;16.10;99.90;;;;;;5046171;28;20053;-72